CDT,Max TemperatureF,Mean TemperatureF,Min TemperatureF,Max Dew PointF,MeanDew PointF,Min DewpointF,Max Humidity, Mean Humidity, Min Humidity, Max Sea Level PressureIn, Mean Sea Level PressureIn, Min Sea Level PressureIn, Max VisibilityMiles, Mean VisibilityMiles, Min VisibilityMiles, Max Wind SpeedMPH, Mean Wind SpeedMPH, Max Gust SpeedMPH,PrecipitationIn, CloudCover, Events, WindDirDegrees
2013-3-1,53,45,37,30,27,23,70,52,33,30.34,30.28,30.21,10,10,10,12,3,21,0.00,0,,338
2013-3-2,53,42,32,28,25,19,80,58,26,30.47,30.35,30.27,10,10,10,16,7,21,0.00,0,,342
2013-3-3,69,53,37,39,29,21,65,44,23,30.26,30.06,29.82,10,10,10,21,9,32,0.00,0,,186
2013-3-4,84,68,53,46,41,28,67,45,13,29.82,29.73,29.62,10,10,10,20,14,30,0.00,1,,197
2013-3-5,60,52,44,41,25,10,62,40,17,30.40,30.23,29.83,10,10,10,24,15,37,0.00,0,,342
2013-3-6,59,47,35,23,21,12,60,40,16,30.49,30.35,30.24,10,10,10,9,5,,0.00,0,,47
2013-3-7,69,56,42,39,27,21,53,37,16,30.26,30.19,30.12,10,10,10,17,5,24,0.00,0,,155
2013-3-8,60,56,53,55,49,41,82,72,55,30.21,30.11,30.02,10,9,7,15,10,21,0.00,4,,154
2013-3-9,68,64,59,64,57,54,94,84,77,30.01,29.86,29.72,10,8,0,16,11,32,1.37,7,,171
2013-3-10,60,51,42,59,39,28,94,63,41,30.13,29.94,29.76,10,10,5,21,8,32,0.03,2,,293
2013-3-11,60,48,35,32,26,12,81,53,18,30.16,30.10,30.03,10,10,10,13,3,18,0.00,0,,293
2013-3-12,66,52,39,32,27,23,65,43,22,30.35,30.17,30.07,10,10,10,16,4,21,0.00,0,,105
2013-3-13,68,55,42,36,33,28,76,48,26,30.47,30.38,30.34,10,10,10,7,3,,0.00,0,,86
2013-3-14,77,64,50,45,37,32,62,47,27,30.38,30.30,30.20,10,10,10,14,5,25,0.00,0,,167
2013-3-15,80,66,53,52,45,37,88,55,26,30.20,30.09,29.92,10,10,10,16,10,28,0.00,0,,190
2013-3-16,80,68,57,55,51,45,82,59,39,29.92,29.83,29.72,10,10,10,20,16,32,0.00,0,,179
2013-3-17,73,66,59,59,54,46,83,68,43,29.82,29.75,29.70,10,10,10,20,12,29,0.00,3,,200
2013-3-18,68,62,57,63,48,36,94,62,42,30.03,29.83,29.68,10,9,5,18,8,30,0.00,1,,36
2013-3-19,66,57,48,43,35,30,71,46,31,30.14,30.05,29.99,10,10,10,17,8,21,0.00,1,,63
2013-3-20,66,56,46,36,31,25,62,42,22,30.34,30.19,30.07,10,10,10,10,7,20,0.00,0,,27
2013-3-21,68,60,51,55,36,27,73,46,31,30.07,29.87,29.59,10,10,10,23,8,41,0.00,3,,147
2013-3-22,64,54,44,61,51,43,93,84,71,29.88,29.72,29.59,10,9,2,16,11,28,0.00,7,,112
2013-3-23,55,50,44,48,45,43,93,87,77,29.91,29.80,29.70,10,7,2,14,7,22,0.00,8,Rain,22
2013-3-24,51,44,37,46,28,18,87,55,30,30.21,30.07,29.88,10,10,4,17,12,32,0.01,4,,330
2013-3-25,53,43,33,23,19,9,65,43,16,30.44,30.34,30.21,10,10,10,13,6,23,0.00,0,,337
2013-3-26,57,44,32,25,21,18,69,45,23,30.53,30.41,30.32,10,10,10,7,2,,0.00,0,,90
2013-3-27,69,56,42,43,31,23,59,45,26,30.34,30.25,30.11,10,10,10,20,7,26,0.00,0,,158
2013-3-28,69,60,51,55,48,43,82,69,59,30.25,30.18,30.11,10,10,10,14,8,23,0.00,2,,165
2013-3-29,75,68,60,55,55,54,82,69,47,30.21,30.13,30.05,10,10,10,17,10,25,0.00,5,,162
2013-3-30,75,68,60,61,59,54,88,71,61,30.13,29.99,29.91,10,10,1,16,8,50,0.32,3,,165
2013-3-31,73,68,62,63,56,48,94,73,46,30.02,29.93,29.83,10,10,7,17,7,25,0.00,1,,158